DYG weather

Dayong Airport
Dayong, Hunan Province, China

Public forecast

Using degrees Celsius for public forecast. Weather courtesy of forecast.io.

Current aviation weather report (METAR) for Dayong Airport

Report is more than 6 hours old.

Retrieved 2019/09/06 23:00 UTC (1 month ago):

ZGDY 062300Z VRB01MPS CAVOK 23/21 Q1007 NOSIG

Aviation forecast (TAF) for Dayong Airport

Forecast is more than 12 hours old.

Retrieved 2019/10/09 06:03 UTC (11 days ago):

TAF ZGDY 090307Z 0906/1006 07003MPS 6000 FEW020 OVC033 TX23/07Z TN18/21Z